createdAt,value
2023-03-17T00:00:33.708Z,4.70
2023-03-17T00:03:19.555Z,4.13
2023-03-17T00:06:06.008Z,4.60
2023-03-17T00:08:52.044Z,4.78
2023-03-17T00:11:37.938Z,4.80
2023-03-17T00:14:23.909Z,4.70
2023-03-17T00:17:12.898Z,4.45
2023-03-17T00:19:58.809Z,4.60
2023-03-17T00:22:45.477Z,5.28
2023-03-17T00:25:33.715Z,4.30
2023-03-17T00:28:23.841Z,4.47
2023-03-17T00:31:24.503Z,3.63
2023-03-17T00:34:16.833Z,3.88
2023-03-17T00:37:04.301Z,4.38
2023-03-17T00:39:50.176Z,4.07
2023-03-17T00:42:36.982Z,5.13
2023-03-17T00:45:23.966Z,4.88
2023-03-17T00:48:15.650Z,3.90
2023-03-17T00:51:02.729Z,4.53
2023-03-17T00:53:49.073Z,4.30
2023-03-17T00:56:35.167Z,4.22
2023-03-17T00:59:34.030Z,4.30
2023-03-17T01:02:19.776Z,4.45
2023-03-17T01:05:07.227Z,4.32
2023-03-17T01:07:55.375Z,4.53
2023-03-17T01:10:42.757Z,4.25
2023-03-17T01:13:29.901Z,4.18
2023-03-17T01:16:15.912Z,4.38
2023-03-17T01:19:02.304Z,4.45
2023-03-17T01:21:48.411Z,4.28
2023-03-17T01:24:34.530Z,4.10
2023-03-17T01:27:20.713Z,4.32
2023-03-17T01:30:09.386Z,4.88
2023-03-17T01:32:56.825Z,4.13
2023-03-17T01:35:46.902Z,4.22
2023-03-17T01:38:33.163Z,4.03
2023-03-17T01:41:20.849Z,4.13
2023-03-17T01:44:07.383Z,4.25
2023-03-17T01:46:54.645Z,4.40
2023-03-17T01:49:42.330Z,3.95
2023-03-17T01:52:29.029Z,4.30
2023-03-17T01:55:21.038Z,4.00
2023-03-17T01:58:09.470Z,4.03
2023-03-17T02:00:56.300Z,4.10
2023-03-17T02:03:42.424Z,4.75
2023-03-17T02:06:29.804Z,4.35
2023-03-17T02:09:15.830Z,4.22
2023-03-17T02:12:03.997Z,3.97
2023-03-17T02:14:51.579Z,3.90
2023-03-17T02:17:38.373Z,3.60
2023-03-17T02:20:24.452Z,4.32
2023-03-17T02:23:11.825Z,3.65
2023-03-17T02:25:59.546Z,4.00
2023-03-17T02:28:46.233Z,4.07
2023-03-17T02:31:33.685Z,4.00
2023-03-17T02:34:19.579Z,4.03
2023-03-17T02:37:07.807Z,3.25
2023-03-17T02:39:53.959Z,3.75
2023-03-17T02:42:40.214Z,3.50
2023-03-17T02:45:27.272Z,4.10
2023-03-17T02:48:13.675Z,4.13
2023-03-17T02:50:59.790Z,3.33
2023-03-17T02:53:45.663Z,3.53
2023-03-17T02:56:31.995Z,3.40
2023-03-17T02:59:18.061Z,3.15
2023-03-17T03:02:04.093Z,4.18
2023-03-17T03:04:50.462Z,3.75
2023-03-17T03:07:36.780Z,3.40
2023-03-17T03:10:22.698Z,3.75
2023-03-17T03:13:08.481Z,3.67
2023-03-17T03:15:54.618Z,3.60
2023-03-17T03:18:40.655Z,3.38
2023-03-17T03:21:26.675Z,2.78
2023-03-17T03:24:12.862Z,2.80
2023-03-17T03:26:58.911Z,3.50
2023-03-17T03:29:45.106Z,3.20
2023-03-17T03:32:31.647Z,3.42
2023-03-17T03:35:17.384Z,3.67
2023-03-17T03:38:03.432Z,3.60
2023-03-17T03:40:49.669Z,3.38
2023-03-17T03:43:35.969Z,2.97
2023-03-17T03:46:21.943Z,3.13
2023-03-17T03:49:07.859Z,2.92
2023-03-17T03:51:53.614Z,3.40
2023-03-17T03:54:39.498Z,3.20
2023-03-17T03:57:25.384Z,3.05
2023-03-17T04:00:14.238Z,3.22
2023-03-17T04:03:00.465Z,3.28
2023-03-17T04:05:46.572Z,2.90
2023-03-17T04:08:32.614Z,2.83
2023-03-17T04:11:18.587Z,3.00
2023-03-17T04:14:06.404Z,3.03
2023-03-17T04:16:52.132Z,3.30
2023-03-17T04:19:39.121Z,3.00
2023-03-17T04:22:24.964Z,3.05
2023-03-17T04:25:12.151Z,3.30
2023-03-17T04:27:58.241Z,2.78
2023-03-17T04:30:44.120Z,3.90
2023-03-17T04:33:29.906Z,3.08
2023-03-17T04:36:19.449Z,3.03
2023-03-17T04:39:05.662Z,2.90
2023-03-17T04:41:51.385Z,3.55
2023-03-17T04:44:37.754Z,3.13
2023-03-17T04:47:23.947Z,3.50
2023-03-17T04:50:10.765Z,3.00
2023-03-17T04:52:57.437Z,3.53
2023-03-17T04:55:43.470Z,2.95
2023-03-17T04:58:31.164Z,3.38
2023-03-17T05:01:17.411Z,3.38
2023-03-17T05:04:03.793Z,3.28
2023-03-17T05:06:49.727Z,3.08
2023-03-17T05:09:35.625Z,3.00
2023-03-17T05:12:21.341Z,2.92
2023-03-17T05:15:07.706Z,3.58
2023-03-17T05:17:53.614Z,3.38
2023-03-17T05:20:39.421Z,3.03
2023-03-17T05:23:26.170Z,2.70
2023-03-17T05:26:11.939Z,3.50
2023-03-17T05:28:57.813Z,2.97
2023-03-17T05:31:43.848Z,3.15
2023-03-17T05:34:30.061Z,3.67
2023-03-17T05:37:16.025Z,3.05
2023-03-17T05:40:02.274Z,3.10
2023-03-17T05:42:48.128Z,2.83
2023-03-17T05:45:33.986Z,3.10
2023-03-17T05:48:19.718Z,3.00
2023-03-17T05:51:05.898Z,3.35
2023-03-17T05:53:52.243Z,2.90
2023-03-17T05:56:38.510Z,2.92
2023-03-17T05:59:25.273Z,3.00
2023-03-17T06:02:12.134Z,3.17
2023-03-17T06:04:57.906Z,2.70
2023-03-17T06:07:53.130Z,3.40
2023-03-17T06:10:41.540Z,3.30
2023-03-17T06:13:27.783Z,2.63
2023-03-17T06:16:13.753Z,3.03
2023-03-17T06:18:59.946Z,2.47
2023-03-17T06:21:46.589Z,3.63
2023-03-17T06:24:32.616Z,3.45
2023-03-17T06:27:18.275Z,3.17
2023-03-17T06:30:06.437Z,3.00
2023-03-17T06:32:52.579Z,2.95
2023-03-17T06:35:38.556Z,3.50
2023-03-17T06:38:24.814Z,3.17
2023-03-17T06:41:11.140Z,3.17
2023-03-17T06:43:57.216Z,3.17
2023-03-17T06:46:43.538Z,3.33
2023-03-17T06:49:29.280Z,3.05
2023-03-17T06:52:15.582Z,3.42
2023-03-17T06:55:01.956Z,3.30
2023-03-17T06:57:50.894Z,3.30
2023-03-17T07:00:40.020Z,3.33
2023-03-17T07:03:26.668Z,3.55
2023-03-17T07:06:12.511Z,3.58
2023-03-17T07:09:00.350Z,3.10
2023-03-17T07:11:48.015Z,3.10
2023-03-17T07:14:36.683Z,3.58
2023-03-17T07:17:22.271Z,3.35
2023-03-17T07:20:09.704Z,3.20
2023-03-17T07:22:55.701Z,3.03
2023-03-17T07:25:43.642Z,3.20
2023-03-17T07:28:29.213Z,2.65
2023-03-17T07:31:15.342Z,3.35
2023-03-17T07:34:01.241Z,3.33
2023-03-17T07:36:47.148Z,3.20
2023-03-17T07:39:33.276Z,3.30
2023-03-17T07:42:19.788Z,3.17
2023-03-17T07:45:07.987Z,2.90
2023-03-17T07:47:54.176Z,2.75
2023-03-17T07:50:40.492Z,2.97
2023-03-17T07:53:26.640Z,3.20
2023-03-17T07:56:13.028Z,3.13
2023-03-17T07:58:59.235Z,3.03
2023-03-17T08:01:45.341Z,3.10
2023-03-17T08:04:31.112Z,3.08
2023-03-17T08:07:17.193Z,2.60
2023-03-17T08:10:05.422Z,3.00
2023-03-17T08:12:53.423Z,3.00
2023-03-17T08:15:39.502Z,3.08
2023-03-17T08:18:25.395Z,3.03
2023-03-17T08:21:11.312Z,2.97
2023-03-17T08:23:57.350Z,2.72
2023-03-17T08:26:43.490Z,2.63
2023-03-17T08:29:30.097Z,2.70
2023-03-17T08:32:16.274Z,2.90
2023-03-17T08:35:02.629Z,3.05
2023-03-17T08:37:48.707Z,3.33
2023-03-17T08:40:35.055Z,2.95
2023-03-17T08:43:22.023Z,2.80
2023-03-17T08:46:17.066Z,3.33
2023-03-17T08:49:03.415Z,3.55
2023-03-17T08:51:49.233Z,3.08
2023-03-17T08:54:35.963Z,3.25
2023-03-17T08:57:22.936Z,2.90
2023-03-17T09:00:11.402Z,3.53
2023-03-17T09:02:58.463Z,3.47
2023-03-17T09:05:45.260Z,3.03
2023-03-17T09:08:30.724Z,3.13
2023-03-17T09:11:18.939Z,3.53
2023-03-17T09:14:04.769Z,3.45
2023-03-17T09:16:50.919Z,3.03
2023-03-17T09:19:37.175Z,2.92
2023-03-17T09:22:23.321Z,2.88
2023-03-17T09:25:09.542Z,4.10
2023-03-17T09:27:55.729Z,3.30
2023-03-17T09:30:42.833Z,2.92
2023-03-17T09:33:29.141Z,2.97
2023-03-17T09:36:15.187Z,2.53
2023-03-17T09:39:01.453Z,2.97
2023-03-17T09:42:12.281Z,2.40
2023-03-17T09:45:32.349Z,2.60
2023-03-17T09:48:52.759Z,2.65
2023-03-17T09:51:40.532Z,2.92
2023-03-17T09:54:29.242Z,2.42
2023-03-17T09:57:33.214Z,2.50
2023-03-17T10:00:24.306Z,2.70
2023-03-17T10:03:11.243Z,2.80
2023-03-17T10:06:10.449Z,2.38
2023-03-17T10:09:10.736Z,2.85
2023-03-17T10:12:20.496Z,2.90
2023-03-17T10:15:16.503Z,2.35
2023-03-17T10:18:12.744Z,2.80
2023-03-17T10:21:04.992Z,3.05
2023-03-17T10:23:51.214Z,2.95
2023-03-17T10:26:46.759Z,2.80
2023-03-17T10:29:32.693Z,3.22
2023-03-17T10:32:18.739Z,4.28
2023-03-17T10:35:04.901Z,2.92
2023-03-17T10:37:53.380Z,3.80
2023-03-17T10:40:59.550Z,2.85
2023-03-17T10:43:47.867Z,3.20
2023-03-17T10:46:33.979Z,2.83
2023-03-17T10:49:22.978Z,2.63
2023-03-17T10:52:21.156Z,3.00
2023-03-17T10:55:09.116Z,2.83
2023-03-17T10:58:01.005Z,2.65
2023-03-17T11:01:00.032Z,2.27
2023-03-17T11:03:46.921Z,2.65
2023-03-17T11:06:44.214Z,2.58
2023-03-17T11:09:35.296Z,2.35
2023-03-17T11:12:24.035Z,2.00
2023-03-17T11:15:17.944Z,3.08
2023-03-17T11:18:11.396Z,3.45
2023-03-17T11:20:59.132Z,2.28
2023-03-17T11:23:47.812Z,2.70
2023-03-17T11:26:57.602Z,2.72
2023-03-17T11:29:51.933Z,2.70
2023-03-17T11:32:44.456Z,5.18
2023-03-17T11:35:50.049Z,2.88
2023-03-17T11:38:39.891Z,2.90
2023-03-17T11:41:41.300Z,2.28
2023-03-17T11:44:56.761Z,3.00
2023-03-17T11:47:52.318Z,4.30
2023-03-17T11:50:51.998Z,3.05
2023-03-17T11:53:45.203Z,2.50
2023-03-17T11:56:40.529Z,3.25
2023-03-17T11:59:36.276Z,2.97
2023-03-17T12:02:28.756Z,3.50
2023-03-17T12:05:23.094Z,2.90
2023-03-17T12:08:23.717Z,2.10
2023-03-17T12:11:15.351Z,2.58
2023-03-17T12:14:05.023Z,2.90
2023-03-17T12:16:55.782Z,2.72
2023-03-17T12:20:05.894Z,2.70
2023-03-17T12:22:57.215Z,1.77
2023-03-17T12:26:06.833Z,2.20
2023-03-17T12:29:00.532Z,2.20
2023-03-17T12:31:53.195Z,2.13
2023-03-17T12:34:57.928Z,2.20
2023-03-17T12:37:43.964Z,2.47
2023-03-17T12:40:37.458Z,2.22
2023-03-17T12:43:32.721Z,2.00
2023-03-17T12:46:29.078Z,2.38
2023-03-17T12:49:28.715Z,1.90
2023-03-17T12:52:42.066Z,2.10
2023-03-17T12:55:32.218Z,2.00
2023-03-17T12:58:45.242Z,2.10
2023-03-17T13:01:34.229Z,2.55
2023-03-17T13:04:37.175Z,3.22
2023-03-17T13:07:25.749Z,2.63
2023-03-17T13:10:13.688Z,3.53
2023-03-17T13:13:08.975Z,2.85
2023-03-17T13:15:58.309Z,2.85
2023-03-17T13:18:47.859Z,2.22
2023-03-17T13:21:36.353Z,2.40
2023-03-17T13:24:36.213Z,2.30
2023-03-17T13:27:31.279Z,2.80
2023-03-17T13:30:24.336Z,2.90
2023-03-17T13:33:10.368Z,3.40
2023-03-17T13:36:33.679Z,3.55
2023-03-17T13:39:31.034Z,3.47
2023-03-17T13:42:18.583Z,3.42
2023-03-17T13:45:08.482Z,2.95
2023-03-17T13:48:27.345Z,3.60
2023-03-17T13:51:20.824Z,3.45
2023-03-17T13:54:09.871Z,4.00
2023-03-17T13:56:59.428Z,2.30
2023-03-17T14:00:04.075Z,3.83
2023-03-17T14:03:14.644Z,2.58
2023-03-17T14:06:03.806Z,4.45
2023-03-17T14:08:56.049Z,2.67
2023-03-17T14:11:45.934Z,2.30
2023-03-17T14:14:50.528Z,2.33
2023-03-17T14:17:56.012Z,2.53
2023-03-17T14:20:53.431Z,2.25
2023-03-17T14:23:39.592Z,2.15
2023-03-17T14:26:28.343Z,3.08
2023-03-17T14:29:20.506Z,2.25
2023-03-17T14:32:16.000Z,3.28
2023-03-17T14:35:01.691Z,3.17
2023-03-17T14:37:47.532Z,4.20
2023-03-17T14:40:36.936Z,2.72
2023-03-17T14:43:23.210Z,2.80
2023-03-17T14:46:37.350Z,2.28
2023-03-17T14:49:23.391Z,2.35
2023-03-17T14:52:18.708Z,3.13
2023-03-17T14:55:06.238Z,1.83
2023-03-17T14:57:52.826Z,2.78
2023-03-17T15:00:45.536Z,2.45
2023-03-17T15:03:33.195Z,2.35
2023-03-17T15:06:23.718Z,2.67
2023-03-17T15:09:33.424Z,60.58
2023-03-17T15:12:23.406Z,10.30
2023-03-17T15:15:23.353Z,4.55
2023-03-17T15:18:14.195Z,2.80
2023-03-17T15:21:01.142Z,3.08
2023-03-17T15:23:48.823Z,2.40
2023-03-17T15:26:37.160Z,2.03
2023-03-17T15:29:22.960Z,2.63
2023-03-17T15:32:15.298Z,3.25
2023-03-17T15:35:01.086Z,3.50
2023-03-17T15:37:47.170Z,3.50
2023-03-17T15:40:33.669Z,2.53
2023-03-17T15:43:23.331Z,3.00
2023-03-17T15:46:18.931Z,3.78
2023-03-17T15:49:09.709Z,2.30
2023-03-17T15:51:55.481Z,2.38
2023-03-17T15:54:41.508Z,2.67
2023-03-17T15:57:27.437Z,2.10
2023-03-17T16:00:20.904Z,2.75
2023-03-17T16:03:17.114Z,2.97
2023-03-17T16:06:05.144Z,2.95
2023-03-17T16:08:51.725Z,3.00
2023-03-17T16:11:40.352Z,2.90
2023-03-17T16:14:27.868Z,2.42
2023-03-17T16:17:36.877Z,1.90
2023-03-17T16:20:32.103Z,5.88
2023-03-17T16:23:19.403Z,3.60
2023-03-17T16:26:14.642Z,3.20
2023-03-17T16:29:01.962Z,6.22
2023-03-17T16:31:49.828Z,2.75
2023-03-17T16:34:36.054Z,2.70
2023-03-17T16:37:22.056Z,3.85
2023-03-17T16:40:27.260Z,3.15
2023-03-17T16:43:25.835Z,2.75
2023-03-17T16:46:12.785Z,2.95
2023-03-17T16:48:58.843Z,3.03
2023-03-17T16:51:44.952Z,2.72
2023-03-17T16:54:33.288Z,2.45
2023-03-17T16:57:19.935Z,2.63
2023-03-17T17:00:10.623Z,3.15
2023-03-17T17:02:57.324Z,3.03
2023-03-17T17:05:43.484Z,3.42
2023-03-17T17:08:29.349Z,5.82
2023-03-17T17:11:16.867Z,6.55
2023-03-17T17:14:03.647Z,5.05
2023-03-17T17:16:49.787Z,5.45
2023-03-17T17:19:35.645Z,6.18
2023-03-17T17:22:21.744Z,5.57
2023-03-17T17:25:10.179Z,5.20
2023-03-17T17:27:57.423Z,4.90
2023-03-17T17:30:46.302Z,3.90
2023-03-17T17:33:32.257Z,4.15
2023-03-17T17:36:18.906Z,4.93
2023-03-17T17:39:04.572Z,4.60
2023-03-17T17:41:50.682Z,4.40
2023-03-17T17:44:41.039Z,4.07
2023-03-17T17:47:27.582Z,3.10
2023-03-17T17:50:26.070Z,5.07
2023-03-17T17:53:12.595Z,5.55
2023-03-17T17:55:58.923Z,4.63
2023-03-17T17:58:45.773Z,4.80
2023-03-17T18:01:31.671Z,8.80
2023-03-17T18:04:17.798Z,24.63
2023-03-17T18:07:04.641Z,22.33
2023-03-17T18:09:50.773Z,13.18
2023-03-17T18:12:36.751Z,12.07
2023-03-17T18:15:24.451Z,10.82
2023-03-17T18:18:11.019Z,9.57
2023-03-17T18:20:57.382Z,12.10
2023-03-17T18:23:47.180Z,11.70
2023-03-17T18:26:33.619Z,13.85
2023-03-17T18:29:19.693Z,11.18
2023-03-17T18:32:08.858Z,11.52
2023-03-17T18:34:56.106Z,13.38
2023-03-17T18:37:42.747Z,12.38
2023-03-17T18:40:28.717Z,10.27
2023-03-17T18:43:14.448Z,10.73
2023-03-17T18:46:00.498Z,10.45
2023-03-17T18:48:46.758Z,9.55
2023-03-17T18:51:33.166Z,9.90
2023-03-17T18:54:19.276Z,13.70
2023-03-17T18:57:05.635Z,11.93
2023-03-17T18:59:51.498Z,11.02
2023-03-17T19:02:37.855Z,10.05
2023-03-17T19:05:24.490Z,9.48
2023-03-17T19:08:11.703Z,8.43
2023-03-17T19:10:57.902Z,8.60
2023-03-17T19:13:49.266Z,11.00
2023-03-17T19:16:36.224Z,9.80
2023-03-17T19:19:22.264Z,9.23
2023-03-17T19:22:08.328Z,9.73
2023-03-17T19:24:54.420Z,9.40
2023-03-17T19:27:40.407Z,8.80
2023-03-17T19:30:27.156Z,9.77
2023-03-17T19:33:14.617Z,8.90
2023-03-17T19:36:02.793Z,13.50
2023-03-17T19:38:49.973Z,16.27
2023-03-17T19:41:36.062Z,11.43
2023-03-17T19:44:22.664Z,12.70
2023-03-17T19:47:12.973Z,12.88
2023-03-17T19:49:58.920Z,12.25
2023-03-17T19:52:46.233Z,13.48
2023-03-17T19:55:32.645Z,14.57
2023-03-17T19:58:18.988Z,13.00
2023-03-17T20:01:05.721Z,11.50
2023-03-17T20:03:51.920Z,11.20
2023-03-17T20:06:38.500Z,11.93
2023-03-17T20:09:26.438Z,11.98
2023-03-17T20:12:13.063Z,26.70
2023-03-17T20:15:03.336Z,20.70
2023-03-17T20:17:49.253Z,15.48
2023-03-17T20:20:35.211Z,16.05
2023-03-17T20:23:21.791Z,13.27
2023-03-17T20:26:08.432Z,12.40
2023-03-17T20:28:55.856Z,9.73
2023-03-17T20:31:49.591Z,9.15
2023-03-17T20:34:35.689Z,8.13
2023-03-17T20:37:22.687Z,8.00
2023-03-17T20:40:10.757Z,8.82
2023-03-17T20:42:57.217Z,8.90
2023-03-17T20:45:43.540Z,9.38
2023-03-17T20:48:30.348Z,9.93
2023-03-17T20:51:16.902Z,9.38
2023-03-17T20:54:03.241Z,10.82
2023-03-17T20:56:52.548Z,12.48
2023-03-17T20:59:39.144Z,11.52
2023-03-17T21:02:25.916Z,12.93
2023-03-17T21:05:17.187Z,14.00
2023-03-17T21:08:05.575Z,13.52
2023-03-17T21:10:51.722Z,13.32
2023-03-17T21:13:50.284Z,13.90
2023-03-17T21:16:37.211Z,14.43
2023-03-17T21:19:23.545Z,14.30
2023-03-17T21:22:10.187Z,14.05
2023-03-17T21:24:55.982Z,15.32
2023-03-17T21:27:42.744Z,15.02
2023-03-17T21:30:29.163Z,15.52
2023-03-17T21:33:15.490Z,12.23
2023-03-17T21:36:01.620Z,13.73
2023-03-17T21:38:47.711Z,12.55
2023-03-17T21:41:35.770Z,12.40
2023-03-17T21:44:22.305Z,13.20
2023-03-17T21:47:08.159Z,12.25
2023-03-17T21:49:54.090Z,14.27
2023-03-17T21:52:40.214Z,12.23
2023-03-17T21:55:26.269Z,11.00
2023-03-17T21:58:12.545Z,11.23
2023-03-17T22:01:00.687Z,13.98
2023-03-17T22:03:46.664Z,12.27
2023-03-17T22:06:32.632Z,15.07
2023-03-17T22:09:19.440Z,16.75
2023-03-17T22:12:06.046Z,15.55
2023-03-17T22:14:52.352Z,13.73
2023-03-17T22:17:39.772Z,13.52
2023-03-17T22:20:25.748Z,12.75
2023-03-17T22:23:11.812Z,13.57
2023-03-17T22:25:58.497Z,12.50
2023-03-17T22:28:45.370Z,13.35
2023-03-17T22:31:31.749Z,12.25
2023-03-17T22:34:18.299Z,13.60
2023-03-17T22:37:04.915Z,12.32
2023-03-17T22:39:52.098Z,12.52
2023-03-17T22:42:38.213Z,11.07
2023-03-17T22:45:25.018Z,11.27
2023-03-17T22:48:11.236Z,11.57
2023-03-17T22:51:01.602Z,12.15
2023-03-17T22:53:48.235Z,11.60
2023-03-17T22:56:34.380Z,11.23
2023-03-17T22:59:20.384Z,11.82
2023-03-17T23:02:06.466Z,11.57
2023-03-17T23:04:52.969Z,11.85
2023-03-17T23:07:49.469Z,11.15
2023-03-17T23:10:35.541Z,11.27
2023-03-17T23:13:21.482Z,11.10
2023-03-17T23:16:08.321Z,11.75
2023-03-17T23:18:54.510Z,11.48
2023-03-17T23:21:40.602Z,10.70
2023-03-17T23:24:26.570Z,11.90
2023-03-17T23:27:12.558Z,11.13
2023-03-17T23:29:59.329Z,12.93
2023-03-17T23:32:45.888Z,12.50
2023-03-17T23:35:32.256Z,10.93
2023-03-17T23:38:19.722Z,11.75
2023-03-17T23:41:05.276Z,11.73
2023-03-17T23:43:51.349Z,11.23
2023-03-17T23:46:37.478Z,11.13
2023-03-17T23:49:23.700Z,11.20
2023-03-17T23:52:11.288Z,10.25
2023-03-17T23:54:57.755Z,11.60
2023-03-17T23:57:44.376Z,11.68
